Pagina principale
METAR-TAF:

METAR-TAF

Aeroporti :

Meiringen, Svizzera

latitudine: 46-44-25N, longitudine: 8-06-36E, altezza: 577 m

Osservazione

Il bollettino è stato emesso 47 minuti fa, alle 12:50 UTC
Vento 6 kt da sud-ovest, variando fra sud e ovest/sud-ovest
Temperature 10°C
Umidità 71%
Pressione 1019 hPa
Visibilità 10 km o più
Poco nuvoloso ad un'altezza di 1100 ft
Nubi sparse ad un'altezza di 3500 ft
Nuvoloso ad un'altezza di 6000 ft
rovesci di pioggia

METAR: LSMM 191250Z 22006KT 170V250 9999 -SHRA FEW011 SCT035 BKN060 10/05 Q1019 RMK BLU

Ora: 15:37 (13:37 UTC)


TAF: mancante

Osservazioni e previsioni meteorologiche di più di 4000 aeroporti (messaggi METAR e TAF).

Le stazioni disponibili sono rappresentate dai dischi gialli e rossi sulla carta.

Puntare il mouse per vedere il nome della stazione.

Clicca sopra per visualizzare le osservazioni e previsioni meteorologiche.

Per cambiare la mappa : fare clic sui pulsanti verdi con una croce nera per ingrandire, il pulsante verde con un trattino per diminuire, o sulla freccia verde per le mappe adiacenti.


METAR-TAF: